Orchid Ace — 7JDE — position and weather

sailwx.info

Track history (hours):
 
Tides and Currents Weather Stations Pressure Air Temp Water Temp Dewpoint Dewpoint Depression Visibility Wind Speed Wind Dir Waves Ship Positions

Orchid Ace

Last reported at 2016-Dec-04 18:00 UTC. Time now 2016-Dec-09 19:50 UTC.
Position N 15°06' W 024°00'.

Length 200 m; draft 8.2 m.

Type: Cargo ship. MMSI: 432651000.

Wind from 050 at 19 knots

Barometer 1012.2 mb
Air temperature 27.0 ° C
Visibility: greater than 10.8 NM
Dewpoint 22.8 ° C
Water temperature 26.0 ° C

Date/timePositionNaut miles runAvg speedWind from/ knotsBaromVisibWave heightAir tempDewpointWater temp
2016-Dec-04 18:00N 15°06' W 024°00'   050 / 191012.210.8 27.022.826.0
2016-Nov-30 02:03N 48°43' W 005°59'919.0
2016-Nov-30 01:33N 48°51' W 005°52'2019.4
2016-Nov-30 00:30N 49°03' W 005°28'2220.7
2016-Nov-29 23:28N 49°18' W 005°03'1921.3
2016-Nov-29 22:33N 49°31' W 004°41'2521.1
2016-Nov-29 21:22N 49°47' W 004°12'1620.4
2016-Nov-29 20:34N 49°58' W 003°53'1818.3
2016-Nov-29 19:33N 50°11' W 003°32'1514.6
2016-Nov-29 18:34N 50°25' W 003°25'1111.3
2016-Nov-29 17:33N 50°26' W 003°08'2020.0
2016-Nov-29 16:33N 50°26' W 002°36'2321.2
2016-Nov-29 15:30N 50°28' W 002°01'2122.2
2016-Nov-29 14:33N 50°29' W 001°28'2322.8
2016-Nov-29 13:33N 50°31' W 000°52'2221.8
2016-Nov-29 12:33N 50°32' W 000°18'2120.7
2016-Nov-29 11:34N 50°35' E 000°14'3919.4
2016-Nov-29 09:33N 50°52' E 001°09'2120.8
2016-Nov-29 08:34N 51°06' E 001°34'2221.9
2016-Nov-29 07:34N 51°23' E 001°55'2121.3
2016-Nov-29 06:33N 51°40' E 002°15'2120.4
2016-Nov-29 05:33N 51°56' E 002°36'1919.6
2016-Nov-29 04:33N 52°10' E 002°59'4518.4
2016-Nov-29 02:08N 52°46' E 003°42'1118.6
2016-Nov-29 01:33N 52°54' E 003°53'1919.6
2016-Nov-29 00:34N 53°07' E 004°17'2219.8
2016-Nov-28 23:26N 53°27' E 004°36'1719.9
2016-Nov-28 22:33N 53°34' E 005°02'2019.7
2016-Nov-28 21:34N 53°41' E 005°33'1919.0
2016-Nov-28 20:32N 53°47' E 006°05'5818.2
2016-Nov-28 17:21N 53°58' E 007°41'1012.8
2016-Nov-28 16:33N 53°52' E 007°55'1817.8
2016-Nov-28 15:33N 53°42' E 008°20'1111.1
2016-Nov-28 14:33N 53°34' E 008°33'1 0.5
2016-Nov-28 13:32N 53°35' E 008°33'0 0.0
2016-Nov-28 12:32N 53°35' E 008°33'0 0.0
2016-Nov-28 11:32N 53°35' E 008°33'0 0.0
2016-Nov-28 10:32N 53°35' E 008°33'0 0.0
2016-Nov-28 09:32N 53°35' E 008°33'0 0.0
2016-Nov-28 08:32N 53°35' E 008°33'0 0.0
2016-Nov-28 07:32N 53°35' E 008°33'0 0.0
2016-Nov-28 06:32N 53°35' E 008°33'0 0.0
2016-Nov-28 05:32N 53°35' E 008°33'0 0.0
2016-Nov-28 04:29N 53°35' E 008°33'0 0.0
2016-Nov-28 03:32N 53°35' E 008°33'0 0.0
2016-Nov-28 02:32N 53°35' E 008°33'0 0.0
2016-Nov-28 01:32N 53°35' E 008°33'0 0.0
2016-Nov-28 00:32N 53°35' E 008°33'0 0.5
2016-Nov-27 23:33N 53°34' E 008°33'4 3.7
2016-Nov-27 22:33N 53°37' E 008°29'1212.3
2016-Nov-27 21:33N 53°45' E 008°13'1212.3
2016-Nov-27 20:33N 53°51' E 007°55'5 4.8
2016-Nov-27 19:32N 53°55' E 007°50'0 0.0
2016-Nov-27 18:23N 53°55' E 007°50'0 0.0
2016-Nov-27 17:32N 53°55' E 007°50'0 0.0
2016-Nov-27 16:17N 53°55' E 007°50'0 0.0
2016-Nov-27 15:32N 53°55' E 007°50'5 5.4
2016-Nov-27 14:33N 53°55' E 007°41'3712.2
2016-Nov-27 11:32N 53°48' E 006°40'1612.4
2016-Nov-27 10:17N 53°44' E 006°14'912.4
2016-Nov-27 09:33N 53°41' E 005°60'1212.4
2016-Nov-27 08:33N 53°37' E 005°40'1312.7
2016-Nov-27 07:33N 53°33' E 005°20'1312.9
2016-Nov-27 06:33N 53°28' E 004°59'2512.6
2016-Nov-27 04:33N 53°09' E 004°32'1413.9
2016-Nov-27 03:33N 52°58' E 004°19'1414.4
2016-Nov-27 02:33N 52°45' E 004°08'1514.6
2016-Nov-27 01:33N 52°34' E 003°52'1514.6
2016-Nov-27 00:34N 52°22' E 003°38'1515.2
2016-Nov-26 23:33N 52°09' E 003°27'1615.3
2016-Nov-26 22:31N 51°54' E 003°20'1111.8
2016-Nov-26 21:33N 51°43' E 003°15'1111.1
2016-Nov-26 20:33N 51°33' E 003°25'1010.1
2016-Nov-26 19:33N 51°26' E 003°36'1211.9
2016-Nov-26 18:33N 51°22' E 003°54'1111.1
2016-Nov-26 17:33N 51°24' E 004°11'9 8.9
2016-Nov-26 16:34N 51°16' E 004°17'1 0.5
2016-Nov-26 15:33N 51°16' E 004°16'1 1.3
2016-Nov-26 14:32N 51°16' E 004°14'0 0.0
2016-Nov-26 13:29N 51°16' E 004°14'0 0.0
2016-Nov-26 12:32N 51°16' E 004°14'0 0.0
2016-Nov-26 11:32N 51°16' E 004°14'0 0.0
2016-Nov-26 10:32N 51°16' E 004°14'0 0.0
2016-Nov-26 09:32N 51°16' E 004°14'0 0.0
2016-Nov-26 08:32N 51°16' E 004°14'0 0.0
2016-Nov-26 07:32N 51°16' E 004°14'0 0.0
2016-Nov-26 06:32N 51°16' E 004°14'0 0.0
2016-Nov-26 05:32N 51°16' E 004°14'0 0.0
2016-Nov-26 04:32N 51°16' E 004°14'0 0.0
2016-Nov-26 03:32N 51°16' E 004°14'0 0.0
2016-Nov-26 02:32N 51°16' E 004°14'0 0.0
2016-Nov-26 01:32N 51°16' E 004°14'0 0.0
2016-Nov-26 00:32N 51°16' E 004°14'0 0.0
2016-Nov-25 23:32N 51°16' E 004°14'0 0.0
2016-Nov-25 22:32N 51°16' E 004°14'0 0.0
2016-Nov-25 21:32N 51°16' E 004°14'0 0.0
2016-Nov-25 20:32N 51°16' E 004°14'0 0.0
2016-Nov-25 19:32N 51°16' E 004°14'0 0.0
2016-Nov-25 18:32N 51°16' E 004°14'0 0.0
2016-Nov-25 17:32N 51°16' E 004°14'0 0.0
2016-Nov-25 16:32N 51°16' E 004°14'0 0.0
2016-Nov-25 15:32N 51°16' E 004°14'0 0.0
2016-Nov-25 14:32N 51°16' E 004°14'0 0.0
2016-Nov-25 13:32N 51°16' E 004°14'0 0.0
2016-Nov-25 12:32N 51°16' E 004°14'0 0.0
2016-Nov-25 11:32N 51°16' E 004°14'0 0.0
2016-Nov-25 10:32N 51°16' E 004°14'0 0.0
2016-Nov-25 09:32N 51°16' E 004°14'0 0.0
2016-Nov-25 08:32N 51°16' E 004°14'0 0.0
2016-Nov-25 07:32N 51°16' E 004°14'0 0.0
2016-Nov-25 06:32N 51°16' E 004°14'0 0.0
2016-Nov-25 05:33N 51°16' E 004°14'1 0.7
2016-Nov-25 04:33N 51°17' E 004°15'3 2.7
2016-Nov-25 03:33N 51°19' E 004°16'7 6.6
2016-Nov-25 02:33N 51°22' E 004°07'7 7.2
2016-Nov-25 01:33N 51°22' E 003°55'10 9.7
2016-Nov-25 00:33N 51°26' E 003°41'9 9.3
2016-Nov-24 23:33N 51°25' E 003°26'10 9.6
2016-Nov-24 22:33N 51°22' E 003°12'2 2.2
2016-Nov-24 21:33N 51°20' E 003°13'1 0.7
2016-Nov-24 20:33N 51°19' E 003°13'0 0.0
2016-Nov-24 19:33N 51°19' E 003°13'0 0.0
2016-Nov-24 18:33N 51°19' E 003°13'  
Track history (hours):
 
Tides and Currents Weather Stations Pressure Air Temp Water Temp Dewpoint Dewpoint Depression Visibility Wind Speed Wind Dir Waves Ship Positions

Orchid Ace

Last reported at 2016-Dec-04 18:00 UTC. Time now 2016-Dec-09 19:50 UTC.
Position N 15°06' W 024°00'.

Length 200 m; draft 8.2 m.

Type: Cargo ship. MMSI: 432651000.

Wind from 050 at 19 knots

Barometer 1012.2 mb
Air temperature 27.0 ° C
Visibility: greater than 10.8 NM
Dewpoint 22.8 ° C
Water temperature 26.0 ° C

Date/timePositionNaut miles runAvg speedWind from/ knotsBaromVisibWave heightAir tempDewpointWater temp
2016-Dec-04 18:00N 15°06' W 024°00'   050 / 191012.210.8 27.022.826.0
2016-Nov-30 02:03N 48°43' W 005°59'919.0
2016-Nov-30 01:33N 48°51' W 005°52'2019.4
2016-Nov-30 00:30N 49°03' W 005°28'2220.7
2016-Nov-29 23:28N 49°18' W 005°03'1921.3
2016-Nov-29 22:33N 49°31' W 004°41'2521.1
2016-Nov-29 21:22N 49°47' W 004°12'1620.4
2016-Nov-29 20:34N 49°58' W 003°53'1818.3
2016-Nov-29 19:33N 50°11' W 003°32'1514.6
2016-Nov-29 18:34N 50°25' W 003°25'1111.3
2016-Nov-29 17:33N 50°26' W 003°08'2020.0
2016-Nov-29 16:33N 50°26' W 002°36'2321.2
2016-Nov-29 15:30N 50°28' W 002°01'2122.2
2016-Nov-29 14:33N 50°29' W 001°28'2322.8
2016-Nov-29 13:33N 50°31' W 000°52'2221.8
2016-Nov-29 12:33N 50°32' W 000°18'2120.7
2016-Nov-29 11:34N 50°35' E 000°14'3919.4
2016-Nov-29 09:33N 50°52' E 001°09'2120.8
2016-Nov-29 08:34N 51°06' E 001°34'2221.9
2016-Nov-29 07:34N 51°23' E 001°55'2121.3
2016-Nov-29 06:33N 51°40' E 002°15'2120.4
2016-Nov-29 05:33N 51°56' E 002°36'1919.6
2016-Nov-29 04:33N 52°10' E 002°59'4518.4
2016-Nov-29 02:08N 52°46' E 003°42'1118.6
2016-Nov-29 01:33N 52°54' E 003°53'1919.6
2016-Nov-29 00:34N 53°07' E 004°17'2219.8
2016-Nov-28 23:26N 53°27' E 004°36'1719.9
2016-Nov-28 22:33N 53°34' E 005°02'2019.7
2016-Nov-28 21:34N 53°41' E 005°33'1919.0
2016-Nov-28 20:32N 53°47' E 006°05'5818.2
2016-Nov-28 17:21N 53°58' E 007°41'1012.8
2016-Nov-28 16:33N 53°52' E 007°55'1817.8
2016-Nov-28 15:33N 53°42' E 008°20'1111.1
2016-Nov-28 14:33N 53°34' E 008°33'1 0.5
2016-Nov-28 13:32N 53°35' E 008°33'0 0.0
2016-Nov-28 12:32N 53°35' E 008°33'0 0.0
2016-Nov-28 11:32N 53°35' E 008°33'0 0.0
2016-Nov-28 10:32N 53°35' E 008°33'0 0.0
2016-Nov-28 09:32N 53°35' E 008°33'0 0.0
2016-Nov-28 08:32N 53°35' E 008°33'0 0.0
2016-Nov-28 07:32N 53°35' E 008°33'0 0.0
2016-Nov-28 06:32N 53°35' E 008°33'0 0.0
2016-Nov-28 05:32N 53°35' E 008°33'0 0.0
2016-Nov-28 04:29N 53°35' E 008°33'0 0.0
2016-Nov-28 03:32N 53°35' E 008°33'0 0.0
2016-Nov-28 02:32N 53°35' E 008°33'0 0.0
2016-Nov-28 01:32N 53°35' E 008°33'0 0.0
2016-Nov-28 00:32N 53°35' E 008°33'0 0.5
2016-Nov-27 23:33N 53°34' E 008°33'4 3.7
2016-Nov-27 22:33N 53°37' E 008°29'1212.3
2016-Nov-27 21:33N 53°45' E 008°13'1212.3
2016-Nov-27 20:33N 53°51' E 007°55'5 4.8
2016-Nov-27 19:32N 53°55' E 007°50'0 0.0
2016-Nov-27 18:23N 53°55' E 007°50'0 0.0
2016-Nov-27 17:32N 53°55' E 007°50'0 0.0
2016-Nov-27 16:17N 53°55' E 007°50'0 0.0
2016-Nov-27 15:32N 53°55' E 007°50'5 5.4
2016-Nov-27 14:33N 53°55' E 007°41'3712.2
2016-Nov-27 11:32N 53°48' E 006°40'1612.4
2016-Nov-27 10:17N 53°44' E 006°14'912.4
2016-Nov-27 09:33N 53°41' E 005°60'1212.4
2016-Nov-27 08:33N 53°37' E 005°40'1312.7
2016-Nov-27 07:33N 53°33' E 005°20'1312.9
2016-Nov-27 06:33N 53°28' E 004°59'2512.6
2016-Nov-27 04:33N 53°09' E 004°32'1413.9
2016-Nov-27 03:33N 52°58' E 004°19'1414.4
2016-Nov-27 02:33N 52°45' E 004°08'1514.6
2016-Nov-27 01:33N 52°34' E 003°52'1514.6
2016-Nov-27 00:34N 52°22' E 003°38'1515.2
2016-Nov-26 23:33N 52°09' E 003°27'1615.3
2016-Nov-26 22:31N 51°54' E 003°20'1111.8
2016-Nov-26 21:33N 51°43' E 003°15'1111.1
2016-Nov-26 20:33N 51°33' E 003°25'1010.1
2016-Nov-26 19:33N 51°26' E 003°36'1211.9
2016-Nov-26 18:33N 51°22' E 003°54'1111.1
2016-Nov-26 17:33N 51°24' E 004°11'9 8.9
2016-Nov-26 16:34N 51°16' E 004°17'1 0.5
2016-Nov-26 15:33N 51°16' E 004°16'1 1.3
2016-Nov-26 14:32N 51°16' E 004°14'0 0.0
2016-Nov-26 13:29N 51°16' E 004°14'0 0.0
2016-Nov-26 12:32N 51°16' E 004°14'0 0.0
2016-Nov-26 11:32N 51°16' E 004°14'0 0.0
2016-Nov-26 10:32N 51°16' E 004°14'0 0.0
2016-Nov-26 09:32N 51°16' E 004°14'0 0.0
2016-Nov-26 08:32N 51°16' E 004°14'0 0.0
2016-Nov-26 07:32N 51°16' E 004°14'0 0.0
2016-Nov-26 06:32N 51°16' E 004°14'0 0.0
2016-Nov-26 05:32N 51°16' E 004°14'0 0.0
2016-Nov-26 04:32N 51°16' E 004°14'0 0.0
2016-Nov-26 03:32N 51°16' E 004°14'0 0.0
2016-Nov-26 02:32N 51°16' E 004°14'0 0.0
2016-Nov-26 01:32N 51°16' E 004°14'0 0.0
2016-Nov-26 00:32N 51°16' E 004°14'0 0.0
2016-Nov-25 23:32N 51°16' E 004°14'0 0.0
2016-Nov-25 22:32N 51°16' E 004°14'0 0.0
2016-Nov-25 21:32N 51°16' E 004°14'0 0.0
2016-Nov-25 20:32N 51°16' E 004°14'0 0.0
2016-Nov-25 19:32N 51°16' E 004°14'0 0.0
2016-Nov-25 18:32N 51°16' E 004°14'0 0.0
2016-Nov-25 17:32N 51°16' E 004°14'0 0.0
2016-Nov-25 16:32N 51°16' E 004°14'0 0.0
2016-Nov-25 15:32N 51°16' E 004°14'0 0.0
2016-Nov-25 14:32N 51°16' E 004°14'0 0.0
2016-Nov-25 13:32N 51°16' E 004°14'0 0.0
2016-Nov-25 12:32N 51°16' E 004°14'0 0.0
2016-Nov-25 11:32N 51°16' E 004°14'0 0.0
2016-Nov-25 10:32N 51°16' E 004°14'0 0.0
2016-Nov-25 09:32N 51°16' E 004°14'0 0.0
2016-Nov-25 08:32N 51°16' E 004°14'0 0.0
2016-Nov-25 07:32N 51°16' E 004°14'0 0.0
2016-Nov-25 06:32N 51°16' E 004°14'0 0.0
2016-Nov-25 05:33N 51°16' E 004°14'1 0.7
2016-Nov-25 04:33N 51°17' E 004°15'3 2.7
2016-Nov-25 03:33N 51°19' E 004°16'7 6.6
2016-Nov-25 02:33N 51°22' E 004°07'7 7.2
2016-Nov-25 01:33N 51°22' E 003°55'10 9.7
2016-Nov-25 00:33N 51°26' E 003°41'9 9.3
2016-Nov-24 23:33N 51°25' E 003°26'10 9.6
2016-Nov-24 22:33N 51°22' E 003°12'2 2.2
2016-Nov-24 21:33N 51°20' E 003°13'1 0.7
2016-Nov-24 20:33N 51°19' E 003°13'0 0.0
2016-Nov-24 19:33N 51°19' E 003°13'0 0.0
2016-Nov-24 18:33N 51°19' E 003°13'  

Dump ship's entire track history